• Join FlightAware (Why Join?)
  • Login
  • US Flag 
10:28AM EDT


 

Airport Tracker/Info


-or-


 

Live Flight TrackerFlight Track Log ✈ N717AN ✈ 16-Jun-2013 ✈ KDFW - EGLL / LHR

Flight Track Log - Related Links

Times and Time Zones

All times are in EDT time to prevent confusion due to time zone crossing. See the N717AN flight status page for this flight to view local times or setup timezone preferences in your user account.

Time Position Orientation Groundspeed Altitude Reporting Facility
EDT Latitude Longitude Course Direction KTS MPH feet Rate Location/Type
06:50PM 32.8480 -97.0180 164° South 193 222 2,300  Level FlightAware
06:51PM 32.8220 -97.0100 166° South 229 264 2,500 900 Climbing FlightAware
06:51PM 32.7960 -97.0020 165° South 253 291 3,100 1,680 Climbing FlightAware
06:52PM 32.7760 -96.9860 146° Southeast 261 300 3,800 2,220 Climbing FlightAware
06:52PM 32.7680 -96.9710 122° Southeast 267 307 4,200 1,980 Climbing FlightAware
06:52PM 32.7660 -96.9540 98° East 269 310 4,600 2,400 Climbing FlightAware
06:53PM 32.7700 -96.9100 84° East 276 318 5,900 2,220 Climbing FlightAware
06:53PM 32.7710 -96.8990 84° East 282 325 6,100 1,920 Climbing FlightAware
06:53PM 32.7850 -96.8500 71° East 289 333 7,200 1,860 Climbing FlightAware
06:53PM 32.7940 -96.8350 54° Northeast 296 341 7,500 1,980 Climbing FlightAware
06:54PM 32.8210 -96.7880 56° Northeast 308 354 8,700 2,400 Climbing FlightAware
06:54PM 32.8330 -96.7670 56° Northeast 309 356 9,300 2,160 Climbing FlightAware
06:55PM 32.8660 -96.7110 55° Northeast 315 362 10,700 1,740 Climbing FlightAware
06:56PM 32.9030 -96.6450 56° Northeast 340 391 11,800 1,320 Climbing FlightAware
06:56PM 32.9410 -96.5790 56° Northeast 375 432 12,600 1,320 Climbing FlightAware
06:57PM 32.9730 -96.5030 63° Northeast 404 465 13,600 1,860 Climbing FlightAware
06:58PM 32.9970 -96.4040 74° East 412 474 15,300 1,980 Climbing FlightAware
06:58PM 33.0180 -96.3130 75° East 430 495 16,500 1,800 Climbing FlightAware
06:59PM 33.0400 -96.2150 75° East 445 512 17,800 1,920 Climbing FlightAware
07:00PM 33.0630 -96.1170 74° East 453 521 19,200 1,980 Climbing FlightAware
07:00PM 33.0860 -96.0160 75° East 458 527 20,600 1,680 Climbing FlightAware
07:01PM 33.1090 -95.9140 75° East 469 540 21,600 1,500 Climbing FlightAware
07:02PM 33.1340 -95.8040 75° East 478 550 22,800 1,620 Climbing FlightAware
07:03PM 33.1600 -95.6930 74° East 486 559 24,000 1,500 Climbing FlightAware
07:03PM 33.1900 -95.5580 75° East 496 571 25,200 1,380 Climbing FlightAware
07:04PM 33.2170 -95.4390 75° East 505 581 26,300 1,320 Climbing FlightAware
07:05PM 33.2420 -95.3240 75° East 513 590 27,200 1,380 Climbing FlightAware
07:06PM 33.2690 -95.2040 75° East 519 597 28,300 1,380 Climbing FlightAware
07:06PM 33.2940 -95.0900 75° East 526 605 29,200 1,380 Climbing FlightAware
07:07PM 33.3065 -95.0349 75° East 522 601 29,700 1,500 Climbing FlightAware ADS-B
07:08PM 33.3460 -94.8520 75° East 525 604 31,400 1,020 Climbing FlightAware
07:08PM 33.3670 -94.7580 75° East 527 606 31,600 1,500 Climbing FlightAware
07:09PM 33.3854 -94.6734 75° East 521 600 33,000 720 Climbing FlightAware ADS-B
07:10PM 33.4417 -94.4125 75° East 520 598 33,000  Level FlightAware ADS-B
07:11PM 33.4556 -94.3486 75° East 514 592 33,000  Level Fort Worth Center
07:12PM 33.4931 -94.1806 75° East 514 592 33,000  Level Fort Worth Center
07:13PM 33.5431 -94.0192 70° East 514 592 33,000  Level Fort Worth Center
07:14PM 33.6072 -93.8444 66° East 514 592 33,000  Level Fort Worth Center
07:15PM 33.6653 -93.6900 66° East 509 586 33,000  Level Fort Worth Center
07:16PM 33.7253 -93.5325 65° Northeast 509 586 33,000  Level Fort Worth Center
07:16PM 33.7411 -93.4872 67° East 508 585 33,000  Level Memphis Center
07:17PM 33.7969 -93.3442 65° Northeast 515 593 33,000  Level Memphis Center
07:18PM 33.8589 -93.1889 64° Northeast 520 598 33,000  Level Memphis Center
07:19PM 33.9167 -93.0306 66° East 520 598 33,000  Level Memphis Center
07:20PM 33.9764 -92.8744 65° Northeast 515 593 33,000  Level Memphis Center
07:21PM 34.0356 -92.7208 65° Northeast 509 586 33,000  Level Memphis Center
07:22PM 34.0972 -92.5444 67° East 509 586 33,000  Level Memphis Center
07:23PM 34.1542 -92.3853 67° East 509 586 33,000  Level Memphis Center
07:24PM 34.2131 -92.2283 66° East 514 592 33,000  Level Memphis Center
07:25PM 34.2736 -92.0689 65° Northeast 519 597 33,000  Level Memphis Center
07:26PM 34.3322 -91.9117 66° East 512 589 33,000  Level Memphis Center
07:27PM 34.3903 -91.7489 67° East 517 595 33,000  Level Memphis Center
07:28PM 34.4442 -91.5911 67° East 515 593 33,000  Level Memphis Center
07:29PM 34.4978 -91.4483 65° Northeast 515 593 33,000  Level Memphis Center
07:30PM 34.5575 -91.2853 66° East 515 593 33,000  Level Memphis Center
07:31PM 34.6150 -91.1267 66° East 515 593 33,000  Level Memphis Center
07:32PM 34.6742 -90.9633 66° East 515 593 33,000  Level Memphis Center
07:34PM 34.7731 -90.7456 37° Northeast  Level FlightAware Approximate
07:34PM 34.8589 -90.7014 37° Northeast 501 577 33,000  Level Memphis Center
07:35PM 34.9864 -90.5853 37° Northeast 507 583 33,000  Level Memphis Center
07:36PM 35.1011 -90.4814 37° Northeast 512 589 33,000  Level Memphis Center
07:37PM 35.2158 -90.3750 37° Northeast 519 597 33,000  Level Memphis Center
07:38PM 35.3306 -90.2706 37° Northeast 519 597 33,000  Level Memphis Center
07:39PM 35.4453 -90.1633 37° Northeast 519 597 33,000  Level Memphis Center
07:40PM 35.5578 -90.0583 37° Northeast 514 592 33,000  Level Memphis Center
07:41PM 35.6597 -89.9636 37° Northeast 508 585 33,000  Level Memphis Center
07:42PM 35.7739 -89.8478 39° Northeast 501 577 33,000  Level Memphis Center
07:43PM 35.8903 -89.7419 36° Northeast 501 577 33,000  Level Memphis Center
07:44PM 36.0022 -89.6386 37° Northeast 506 582 33,000  Level Memphis Center
07:45PM 36.1142 -89.5322 38° Northeast 511 588 33,000  Level Memphis Center
07:51PM 36.8210 -88.8550 38° Northeast 519 597 33,000  Level FlightAware
07:52PM 36.9110 -88.7690 37° Northeast 522 601 33,000  Level FlightAware
07:53PM 37.0270 -88.6560 38° Northeast 524 603 33,000  Level FlightAware
07:54PM 37.1120 -88.5730 38° Northeast 524 603 33,000  Level FlightAware
07:55PM 37.1910 -88.4950 38° Northeast 523 602 33,000  Level FlightAware
07:55PM 37.2740 -88.4140 38° Northeast 521 600 33,000  Level FlightAware
07:56PM 37.3570 -88.3320 38° Northeast 519 597 33,000  Level FlightAware
07:57PM 37.4380 -88.2580 36° Northeast 514 592 33,000  Level FlightAware
07:57PM 37.5230 -88.2100 24° Northeast 512 589 33,000  Level FlightAware
07:58PM 37.6120 -88.1590 24° Northeast 517 595 33,000  Level FlightAware
07:59PM 37.7070 -88.1040 25° Northeast 517 595 33,000  Level FlightAware
08:00PM 37.7940 -88.0540 24° Northeast 519 597 33,000  Level FlightAware
08:00PM 37.8820 -87.9810 33° Northeast 529 609 33,000  Level FlightAware
08:01PM 37.9370 -87.8730 57° Northeast 535 616 33,000  Level FlightAware
08:02PM 37.9930 -87.7580 58° Northeast 535 616 33,000  Level FlightAware
08:02PM 38.0440 -87.6420 61° Northeast 535 616 33,000  Level FlightAware
08:03PM 38.0940 -87.5280 61° Northeast 536 617 33,000 -120 Level FlightAware
08:04PM 38.1440 -87.4170 60° Northeast 535 616 32,900 -720 Descending FlightAware
08:04PM 38.1970 -87.2970 61° Northeast 535 616 32,000 -1,020 Descending FlightAware
08:05PM 38.2460 -87.1890 60° Northeast 531 611 31,500 -780 Descending FlightAware
08:06PM 38.2970 -87.0730 61° Northeast 527 606 31,000 -360 Descending FlightAware
08:07PM 38.3500 -86.9550 60° Northeast 525 604 31,000  Level FlightAware
08:07PM 38.3970 -86.8470 61° Northeast 527 606 31,000  Level FlightAware
08:08PM 38.4810 -86.6560 61° Northeast 526 605 31,000  Level FlightAware
08:09PM 38.5260 -86.5540 61° Northeast 528 608 31,000  Level FlightAware
08:10PM 38.5820 -86.4260 61° Northeast 526 605 31,000  Level FlightAware
08:10PM 38.6290 -86.3180 61° Northeast 525 604 31,000  Level FlightAware
08:11PM 38.6730 -86.2160 61° Northeast 525 604 31,000  Level FlightAware
08:12PM 38.7250 -86.0950 61° Northeast 528 608 31,000  Level FlightAware
08:13PM 38.7720 -85.9860 61° Northeast 530 610 31,000  Level FlightAware
08:13PM 38.8240 -85.8630 61° Northeast 532 612 31,000  Level FlightAware
08:14PM 38.8700 -85.7560 61° Northeast 531 611 31,000  Level FlightAware
08:15PM 38.9220 -85.6330 61° Northeast 530 610 31,000  Level FlightAware
08:15PM 38.9680 -85.5250 61° Northeast 529 609 31,000  Level FlightAware
08:16PM 39.0100 -85.4260 61° Northeast 530 610 31,000  Level FlightAware
08:17PM 39.0630 -85.2980 62° Northeast 531 611 31,000  Level FlightAware
08:17PM 39.1090 -85.1910 61° Northeast 531 611 31,000  Level FlightAware
08:18PM 39.1610 -85.0650 62° Northeast 533 613 31,000  Level FlightAware
08:19PM 39.2090 -84.9410 63° Northeast 535 616 31,000  Level FlightAware
08:19PM 39.2540 -84.8170 65° Northeast 537 618 31,000  Level FlightAware
08:20PM 39.3010 -84.6870 65° Northeast 539 620 31,000  Level FlightAware
08:21PM 39.3440 -84.5710 64° Northeast 539 620 31,000  Level FlightAware
08:22PM 39.3870 -84.4550 64° Northeast 539 620 31,000  Level FlightAware
08:22PM 39.4370 -84.3200 64° Northeast 542 624 31,000  Level FlightAware
08:23PM 39.4770 -84.2080 65° Northeast 542 624 31,000  Level FlightAware
08:24PM 39.5230 -84.0830 64° Northeast 542 624 31,000  Level FlightAware
08:24PM 39.5710 -83.9500 65° Northeast 545 627 31,000  Level FlightAware
08:25PM 39.6160 -83.8250 65° Northeast 545 627 31,000  Level FlightAware
08:26PM 39.6580 -83.7090 65° Northeast 545 627 31,000  Level FlightAware
08:27PM 39.7040 -83.5780 65° Northeast 546 628 31,000  Level FlightAware
08:27PM 39.7470 -83.4590 65° Northeast 548 631 31,000  Level FlightAware
08:28PM 39.7940 -83.3260 65° Northeast 548 631 31,000  Level FlightAware
08:29PM 39.8320 -83.2180 65° Northeast 549 632 31,000 120 Level FlightAware
08:29PM 39.8830 -83.0720 65° Northeast 551 634 31,200 720 Climbing FlightAware
08:30PM 39.9260 -82.9470 66° East 555 639 32,100 1,200 Climbing FlightAware
08:31PM 39.9690 -82.8250 65° Northeast 559 643 32,900 600 Climbing FlightAware
08:31PM 40.0140 -82.6960 65° Northeast 559 643 33,000 60 Climbing FlightAware
08:32PM 40.0550 -82.5770 66° East 559 643 33,000  Level FlightAware
08:33PM 40.1030 -82.4370 66° East 562 647 33,000  Level FlightAware
08:34PM 40.1470 -82.3080 66° East 560 644 33,000  Level FlightAware
08:34PM 40.1910 -82.1770 66° East 559 643 33,000  Level FlightAware
08:35PM 40.2370 -82.0420 66° East 560 644 33,000  Level FlightAware
08:36PM 40.2790 -81.9170 66° East 561 646 33,000  Level FlightAware
08:36PM 40.3240 -81.7830 66° East 564 649 33,000  Level FlightAware
08:37PM 40.3660 -81.6570 66° East 566 651 33,000  Level FlightAware
08:38PM 40.4120 -81.5170 67° East 566 651 33,000  Level FlightAware
08:38PM 40.4560 -81.3850 66° East 568 654 33,000  Level FlightAware
08:39PM 40.4950 -81.2650 67° East 569 655 33,000  Level FlightAware
08:40PM 40.5410 -81.1250 67° East 568 654 33,000  Level FlightAware
08:41PM 40.5860 -80.9870 67° East 571 657 33,000  Level FlightAware
08:41PM 40.6300 -80.8510 67° East 572 658 33,000  Level FlightAware
08:42PM 40.6720 -80.7220 67° East 572 658 33,000  Level FlightAware
08:43PM 40.7110 -80.6000 67° East 572 658 33,000  Level FlightAware
08:43PM 40.7590 -80.4500 67° East 573 659 33,000  Level FlightAware
08:44PM 40.8000 -80.3190 68° East 573 659 33,000  Level FlightAware
08:45PM 40.8420 -80.1850 67° East 571 657 33,000  Level FlightAware
08:45PM 40.8880 -80.0410 67° East 573 659 33,000  Level FlightAware
08:46PM 40.9280 -79.9130 67° East 572 658 33,000  Level FlightAware
08:47PM 40.9720 -79.7710 68° East 571 657 33,000  Level FlightAware
08:48PM 41.0240 -79.6030 68° East 573 659 33,000  Level FlightAware
08:48PM 41.0610 -79.4840 68° East 573 659 33,000  Level FlightAware
08:49PM 41.1020 -79.3490 68° East 573 659 33,000  Level FlightAware
08:50PM 41.1440 -79.2110 68° East 574 661 33,000  Level FlightAware
08:50PM 41.1880 -79.0680 68° East 574 661 33,000  Level FlightAware
08:51PM 41.2330 -78.9190 68° East 576 663 33,000  Level FlightAware
08:52PM 41.2720 -78.7870 69° East 577 664 33,000  Level FlightAware
08:53PM 41.3090 -78.6640 68° East 577 664 33,000  Level FlightAware
08:53PM 41.3470 -78.5370 68° East 578 665 33,000  Level FlightAware
08:54PM 41.3950 -78.3730 69° East 576 663 33,000  Level FlightAware
08:55PM 41.4390 -78.2250 68° East 575 662 33,000  Level FlightAware
08:55PM 41.4770 -78.0930 69° East 574 661 33,000  Level FlightAware
08:56PM 41.5210 -77.9570 67° East 577 664 33,000  Level FlightAware
08:57PM 41.5700 -77.8170 65° Northeast 578 665 33,000  Level FlightAware
08:58PM 41.6210 -77.6730 65° Northeast 579 666 33,000  Level FlightAware
08:58PM 41.6660 -77.5460 65° Northeast 577 664 33,000  Level FlightAware
08:59PM 41.7140 -77.4140 64° Northeast 578 665 33,000  Level FlightAware
09:00PM 41.7630 -77.2740 65° Northeast 578 665 33,000  Level FlightAware
09:00PM 41.8100 -77.1400 65° Northeast 578 665 33,000  Level FlightAware
09:01PM 41.8520 -77.0200 65° Northeast 579 666 33,000  Level FlightAware
09:02PM 41.9060 -76.8650 65° Northeast 581 669 33,000  Level FlightAware
09:02PM 41.9550 -76.7240 65° Northeast 582 670 33,000  Level FlightAware
09:03PM 42.0050 -76.5810 65° Northeast 582 670 33,000  Level FlightAware
09:03PM 42.0276 -76.5157 65° Northeast 584 672 33,000  Level FlightAware ADS-B
09:05PM 42.1020 -76.2990 65° Northeast 583 671 33,000  Level FlightAware
09:05PM 42.1470 -76.1670 65° Northeast 583 671 33,000  Level FlightAware
09:06PM 42.1950 -76.0270 65° Northeast 582 670 33,000  Level FlightAware
09:07PM 42.2400 -75.8980 65° Northeast 583 671 33,000 420 Level FlightAware
09:07PM 42.2910 -75.7520 65° Northeast 584 672 33,600 660 Climbing FlightAware
09:08PM 42.3400 -75.6230 63° Northeast 583 671 34,000 660 Climbing FlightAware
09:09PM 42.4020 -75.4840 59° Northeast 582 670 34,600 660 Climbing FlightAware
09:09PM 42.4610 -75.3500 59° Northeast 575 662 35,000 240 Climbing FlightAware
09:10PM 42.5150 -75.2240 60° Northeast 575 662 35,000  Level FlightAware
09:11PM 42.5730 -75.0930 59° Northeast 573 659 35,000  Level FlightAware
09:11PM 42.6200 -74.9870 59° Northeast 575 662 35,000  Level FlightAware
09:12PM 42.6810 -74.8490 59° Northeast 577 664 35,000  Level FlightAware
09:13PM 42.7450 -74.7010 59° Northeast 577 664 35,000  Level FlightAware
09:14PM 42.8020 -74.5690 59° Northeast 578 665 35,000  Level FlightAware
09:14PM 42.8560 -74.4450 59° Northeast 578 665 35,000  Level FlightAware
09:15PM 42.9160 -74.3050 60° Northeast 578 665 35,000  Level FlightAware
09:16PM 42.9700 -74.1810 59° Northeast 579 666 35,000  Level FlightAware
09:16PM 43.0170 -74.0700 60° Northeast 579 666 35,000  Level FlightAware
09:17PM 43.0750 -73.9350 60° Northeast 580 667 35,000  Level FlightAware
09:18PM 43.1420 -73.7770 60° Northeast 583 671 35,000  Level FlightAware
09:18PM 43.1900 -73.6630 60° Northeast 583 671 35,000  Level FlightAware
09:19PM 43.2560 -73.5060 60° Northeast 584 672 35,000  Level FlightAware
09:20PM 43.3070 -73.3830 60° Northeast 584 672 35,000  Level FlightAware
09:21PM 43.3610 -73.2520 60° Northeast 585 673 35,000  Level FlightAware
09:21PM 43.4140 -73.1250 60° Northeast 585 673 35,000  Level FlightAware
09:22PM 43.4760 -72.9750 60° Northeast 585 673 35,000  Level FlightAware
09:23PM 43.5300 -72.8440 60° Northeast 585 673 35,000  Level FlightAware
09:23PM 43.5880 -72.7010 61° Northeast 580 667 35,000  Level FlightAware
09:24PM 43.6410 -72.5700 61° Northeast 583 671 35,000  Level FlightAware
09:25PM 43.7000 -72.4240 61° Northeast 583 671 35,000  Level FlightAware
09:25PM 43.7450 -72.3140 60° Northeast 583 671 35,000  Level FlightAware
09:26PM 43.8070 -72.1580 61° Northeast 583 671 35,000  Level FlightAware
09:27PM 43.8590 -72.0280 61° Northeast 584 672 35,000  Level FlightAware
09:28PM 43.9230 -71.8670 61° Northeast 588 677 35,000  Level FlightAware
09:28PM 43.9750 -71.7350 61° Northeast 588 677 35,000  Level FlightAware
09:29PM 44.0320 -71.5900 61° Northeast 589 678 35,000  Level FlightAware
09:30PM 44.0840 -71.4570 61° Northeast 588 677 35,000  Level FlightAware
09:30PM 44.1390 -71.3170 61° Northeast 589 678 35,000  Level FlightAware
09:31PM 44.1950 -71.1700 62° Northeast 589 678 35,000  Level FlightAware
09:32PM 44.2420 -71.0490 62° Northeast 589 678 35,000  Level FlightAware
09:33PM 44.3000 -70.8980 62° Northeast 589 678 35,000  Level FlightAware
09:33PM 44.3560 -70.7490 62° Northeast 590 679 35,000  Level FlightAware
09:34PM 44.4100 -70.6070 62° Northeast 590 679 35,000  Level FlightAware
09:35PM 44.4620 -70.4710 62° Northeast 591 680 35,000  Level FlightAware
09:35PM 44.5130 -70.3340 62° Northeast 592 681 35,000  Level FlightAware
09:36PM 44.5640 -70.1960 63° Northeast 593 682 35,000  Level FlightAware
09:37PM 44.6170 -70.0550 62° Northeast 593 682 35,000  Level FlightAware
09:37PM 44.6720 -69.9050 63° Northeast 593 682 35,000  Level FlightAware
09:38PM 44.7260 -69.7580 63° Northeast 593 682 35,000  Level FlightAware
09:39PM 44.7950 -69.5710 62° Northeast 593 682 35,000  Level FlightAware
09:40PM 44.8470 -69.4270 63° Northeast 593 682 35,000  Level FlightAware
09:41PM 44.9050 -69.2660 63° Northeast 593 682 35,000  Level FlightAware
09:41PM 44.9550 -69.1270 63° Northeast 592 681 35,000  Level FlightAware
09:42PM 45.0030 -68.9920 63° Northeast 592 681 35,000  Level FlightAware
09:43PM 45.0590 -68.8350 63° Northeast 592 681 35,000  Level FlightAware
09:43PM 45.1090 -68.6930 63° Northeast 594 684 35,000  Level FlightAware
09:44PM 45.1580 -68.5530 64° Northeast 594 684 35,000  Level FlightAware
09:45PM 45.2130 -68.3970 63° Northeast 594 684 35,000  Level FlightAware
09:45PM 45.2570 -68.2690 64° Northeast 592 681 35,000  Level FlightAware
09:46PM 45.3130 -68.1100 63° Northeast 591 680 35,000  Level FlightAware
09:47PM 45.3610 -67.9690 64° Northeast 591 680 35,000  Level FlightAware
09:47PM 45.3840 -67.9020 64° Northeast 590 679 35,000  Level FlightAware
09:48PM 45.4600 -67.6780 64° Northeast 591 680 35,000  Level FlightAware
09:49PM 45.5080 -67.5360 64° Northeast 591 680 35,000  Level FlightAware
09:50PM 45.5610 -67.3810 64° Northeast 591 680 35,000  Level FlightAware
09:50PM 45.6090 -67.2370 64° Northeast 592 681 35,000  Level FlightAware
09:51PM 45.6700 -67.0520 65° Northeast 590 679 35,000  Level FlightAware
09:52PM 45.7170 -66.9120 64° Northeast 591 680 35,000  Level FlightAware
09:53PM 45.7750 -66.7330 65° Northeast 590 679 35,000  Level FlightAware
09:53PM 45.8220 -66.5910 65° Northeast 590 679 35,000  Level FlightAware
09:54PM 45.8680 -66.4480 65° Northeast 589 678 35,000  Level FlightAware
09:55PM 45.9200 -66.2870 65° Northeast 591 680 35,000  Level FlightAware
09:55PM 45.9650 -66.1480 65° Northeast 590 679 35,000 -300 Level FlightAware
09:56PM 46.0110 -66.0020 66° East 592 681 34,600 -780 Descending FlightAware
09:57PM 46.0520 -65.8730 65° Northeast 595 685 34,000 -360 Descending FlightAware
09:58PM 46.1250 -65.6430 65° Northeast 595 685 34,000  Level FlightAware
09:58PM 46.1740 -65.4880 65° Northeast 596 686 34,000  Level FlightAware
09:59PM 46.2100 -65.3780 65° Northeast 596 686 34,000  Level FlightAware
10:00PM 46.2570 -65.2310 65° Northeast 596 686 34,000  Level FlightAware
10:01PM 46.2950 -65.1140 65° Northeast 596 686 34,000  Level FlightAware
10:02PM 46.3540 -64.9290 65° Northeast 596 686 34,000  Level FlightAware
10:02PM 46.3910 -64.8150 65° Northeast 596 686 34,000  Level FlightAware
10:03PM 46.4510 -64.6270 65° Northeast 596 686 34,000  Level FlightAware
10:04PM 46.4870 -64.5160 65° Northeast 596 686 34,000  Level FlightAware
10:05PM 46.5340 -64.3680 65° Northeast 596 686 34,000  Level FlightAware
10:05PM 46.5700 -64.2570 65° Northeast 596 686 34,000  Level FlightAware
10:06PM 46.6180 -64.1050 65° Northeast 596 686 34,000  Level FlightAware
10:07PM 46.6540 -63.9940 65° Northeast 596 686 34,000  Level FlightAware
10:07PM 46.7020 -63.8450 65° Northeast 596 686 34,000  Level FlightAware
10:08PM 46.7390 -63.7280 65° Northeast 596 686 34,000  Level FlightAware
10:08PM 46.9000 -63.3833 65° Northeast 580 667 34,000  Level Gander Center
10:09PM 46.9500 -63.2500 61° Northeast 580 667 34,000  Level Moncton Center
10:10PM 47.0500 -63.0667 51° Northeast 580 667 34,000  Level Moncton Center
10:11PM 47.1333 -62.8500 60° Northeast 580 667 34,000  Level Moncton Center
10:12PM 47.2000 -62.6500 64° Northeast 580 667 34,000  Level Moncton Center
10:13PM 47.2667 -62.4000 68° East 580 667 34,000  Level Moncton Center
10:14PM 47.3333 -62.2000 64° Northeast 580 667 34,000  Level Moncton Center
10:15PM 47.4000 -61.9667 67° East 580 667 34,000  Level Moncton Center
10:16PM 47.4667 -61.7500 65° Northeast 580 667 34,000  Level Moncton Center
10:17PM 47.5333 -61.5500 64° Northeast 580 667 34,000  Level Moncton Center
10:18PM 47.6000 -61.3167 67° East 580 667 34,000  Level Moncton Center
10:19PM 47.6667 -61.1167 64° Northeast 580 667 34,000  Level Moncton Center
10:20PM 47.7500 -60.8833 62° Northeast 580 667 34,000  Level Moncton Center
10:21PM 47.7833 -60.6667 77° East 580 667 34,000 300 Level Moncton Center
10:22PM 47.8333 -60.4333 72° East 580 667 34,600 480 Climbing Moncton Center
10:23PM 47.8833 -60.2000 72° East 590 679 35,000 180 Climbing Moncton Center
10:24PM 47.9333 -59.9667 72° East 590 679 35,000  Level Moncton Center
10:25PM 47.9833 -59.7167 73° East 590 679 35,000  Level Moncton Center
10:26PM 48.0333 -59.4833 72° East 580 667 35,000  Level Moncton Center
10:27PM 48.0833 -59.2500 72° East 580 667 35,000  Level Moncton Center
10:28PM 48.1333 -59.0333 71° East 580 667 35,000  Level Moncton Center
10:29PM 48.1833 -58.8000 72° East 580 667 35,000  Level Moncton Center
10:30PM 48.2333 -58.5833 71° East 580 667 35,000  Level Moncton Center
10:31PM 48.3000 -58.3500 67° East 580 667 35,000  Level Moncton Center
10:32PM 48.3500 -58.1167 72° East 580 667 35,000  Level Moncton Center
10:33PM 48.4000 -57.8833 72° East 580 667 35,000  Level Moncton Center
10:34PM 48.4333 -57.6500 78° East 580 667 35,000  Level Moncton Center
10:35PM 48.5000 -57.4500 63° Northeast 580 667 35,000  Level Moncton Center
10:36PM 48.5500 -57.2000 73° East 580 667 35,000  Level Moncton Center
10:37PM 48.6000 -56.9667 72° East 580 667 35,000  Level Moncton Center
10:42PM 48.8930 -55.8140 72° East 584 672 35,000  Level FlightAware
10:43PM 48.9200 -55.6950 71° East 584 672 35,000  Level FlightAware
10:44PM 48.9550 -55.5400 71° East 584 672 35,000  Level FlightAware
10:44PM 48.9820 -55.4210 71° East 584 672 35,000  Level FlightAware
10:45PM 49.0190 -55.2550 71° East 584 672 35,000  Level FlightAware
10:46PM 49.0470 -55.1320 71° East 584 672 35,000  Level FlightAware
10:46PM 49.0750 -55.0100 71° East 584 672 35,000  Level FlightAware
10:47PM 49.1110 -54.8510 71° East 584 672 35,000  Level FlightAware
10:48PM 49.1380 -54.7310 71° East 584 672 35,000  Level FlightAware
10:49PM 49.1730 -54.5720 71° East 584 672 35,000  Level FlightAware
10:49PM 49.2010 -54.4490 71° East 584 672 35,000  Level FlightAware
10:50PM 49.2380 -54.2860 71° East 584 672 35,000  Level FlightAware
10:51PM 49.2650 -54.1660 71° East 584 672 35,000  Level FlightAware
10:51PM 49.3010 -54.0030 71° East 584 672 35,000  Level FlightAware
10:53PM 49.4040 -53.3460 76° East 578 665 35,000  Level FlightAware
10:54PM 49.4360 -53.1840 73° East 577 664 35,000  Level FlightAware
10:54PM 49.4770 -52.9730 73° East 578 665 35,000  Level FlightAware
10:55PM 49.5100 -52.7940 74° East 578 665 35,000  Level FlightAware
10:56PM 49.5450 -52.6150 73° East 579 666 35,000  Level FlightAware
10:57PM 49.5880 -52.3770 74° East 579 666 35,000  Level FlightAware
10:58PM 49.6250 -52.1760 74° East 578 665 35,000  Level FlightAware
10:59PM 49.6550 -52.0140 74° East 578 665 35,000  Level FlightAware
10:59PM 49.6930 -51.8000 75° East 577 664 35,000  Level FlightAware
11:01PM 49.7420 -51.5300 74° East 579 666 35,000  Level FlightAware
11:01PM 49.7660 -51.4040 74° East 579 666 35,000  Level FlightAware
11:02PM 49.7880 -51.2820 74° East 579 666 35,000  Level FlightAware
11:03PM 49.8180 -51.1200 74° East 579 666 35,000  Level FlightAware
11:03PM 49.8470 -50.9630 74° East 579 666 35,000  Level FlightAware
11:04PM 49.8700 -50.8410 74° East 579 666 35,000  Level FlightAware
11:05PM 49.9000 -50.6780 74° East 579 666 35,000  Level FlightAware
11:05PM 49.9210 -50.5630 74° East 579 666 35,000  Level FlightAware
11:06PM 49.9520 -50.3960 74° East 579 666 35,000  Level FlightAware
11:07PM 49.9740 -50.2730 74° East 579 666 35,000  Level FlightAware
11:08PM 50.0050 -50.1070 74° East 579 666 35,000  Level FlightAware
11:08PM 50.0280 -49.9840 74° East 579 666 35,000  Level FlightAware
11:09PM 50.0570 -49.8240 74° East 579 666 35,000  Level FlightAware
11:10PM 50.0800 -49.7010 74° East 579 666 35,000  Level FlightAware
11:10PM 50.1167 -49.0167 74° East 600 690 35,000  Level Gander Center
11:11PM 50.1500 -48.7667 78° East 610 702 35,000  Level Gander Center
11:12PM 50.1833 -48.5000 79° East 600 690 35,000  Level Gander Center
11:13PM 50.2167 -48.2500 78° East 590 679 35,000  Level Gander Center
11:14PM 50.2500 -48.0000 78° East 590 679 35,000  Level Gander Center
11:15PM 50.2833 -47.7500 78° East 600 690 35,000  Level Gander Center
11:17PM 50.3180 -47.4789 79° East  Level FlightAware Approximate
11:24PM 50.5100 -45.8671 79° East  Level FlightAware Approximate
11:25PM 50.5356 -45.6358 80° East  Level FlightAware Approximate
11:26PM 50.5607 -45.4043 80° East  Level FlightAware Approximate
11:27PM 50.5854 -45.1725 80° East  Level FlightAware Approximate
11:28PM 50.6094 -44.9404 81° East  Level FlightAware Approximate
11:29PM 50.6326 -44.7080 81° East  Level FlightAware Approximate
11:30PM 50.6554 -44.4754 81° East  Level FlightAware Approximate
11:31PM 50.6777 -44.2426 81° East  Level FlightAware Approximate
11:32PM 50.6995 -44.0095 81° East  Level FlightAware Approximate
11:33PM 50.7209 -43.7762 82° East  Level FlightAware Approximate
11:34PM 50.7418 -43.5427 82° East  Level FlightAware Approximate
11:35PM 50.7622 -43.3090 82° East  Level FlightAware Approximate
11:36PM 50.7822 -43.0751 82° East  Level FlightAware Approximate
11:37PM 50.8017 -42.8410 82° East  Level FlightAware Approximate
11:38PM 50.8207 -42.6068 83° East  Level FlightAware Approximate
11:39PM 50.8393 -42.3723 83° East  Level FlightAware Approximate
11:40PM 50.8574 -42.1376 83° East  Level FlightAware Approximate
11:41PM 50.8750 -41.9028 83° East  Level FlightAware Approximate
11:42PM 50.8922 -41.6678 83° East  Level FlightAware Approximate
11:43PM 50.9088 -41.4326 83° East  Level FlightAware Approximate
11:44PM 50.9250 -41.1972 84° East  Level FlightAware Approximate
11:45PM 50.9408 -40.9617 84° East  Level FlightAware Approximate
11:46PM 50.9560 -40.7260 84° East  Level FlightAware Approximate
11:47PM 50.9708 -40.4902 84° East  Level FlightAware Approximate
11:48PM 50.9851 -40.2542 84° East  Level FlightAware Approximate
11:49PM 50.9990 -40.0181 85° East  Level FlightAware Approximate
11:50PM 51.0308 -39.7865 77° East  Level FlightAware Approximate
11:51PM 51.0638 -39.5550 77° East  Level FlightAware Approximate
11:52PM 51.0964 -39.3231 77° East  Level FlightAware Approximate
11:53PM 51.1284 -39.0909 78° East  Level FlightAware Approximate
11:54PM 51.1600 -38.8584 78° East  Level FlightAware Approximate
11:55PM 51.1912 -38.6255 78° East  Level FlightAware Approximate
11:56PM 51.2218 -38.3924 78° East  Level FlightAware Approximate
11:57PM 51.2520 -38.1589 78° East  Level FlightAware Approximate
11:58PM 51.2818 -37.9251 78° East  Level FlightAware Approximate
11:59PM 51.3111 -37.6911 79° East  Level FlightAware Approximate
12:00AM 51.3399 -37.4567 79° East  Level FlightAware Approximate
12:01AM 51.3682 -37.2221 79° East  Level FlightAware Approximate
12:02AM 51.3961 -36.9871 79° East  Level FlightAware Approximate
12:03AM 51.4235 -36.7519 79° East  Level FlightAware Approximate
12:04AM 51.4504 -36.5164 80° East  Level FlightAware Approximate
12:05AM 51.4769 -36.2806 80° East  Level FlightAware Approximate
12:06AM 51.5029 -36.0446 80° East  Level FlightAware Approximate
12:07AM 51.5284 -35.8082 80° East  Level FlightAware Approximate
12:08AM 51.5534 -35.5717 80° East  Level FlightAware Approximate
12:09AM 51.5780 -35.3348 80° East  Level FlightAware Approximate
12:10AM 51.6021 -35.0977 81° East  Level FlightAware Approximate
12:11AM 51.6257 -34.8604 81° East  Level FlightAware Approximate
12:12AM 51.6488 -34.6228 81° East  Level FlightAware Approximate
12:13AM 51.6715 -34.3849 81° East  Level FlightAware Approximate
12:14AM 51.6936 -34.1469 81° East  Level FlightAware Approximate
12:15AM 51.7153 -33.9086 82° East  Level FlightAware Approximate
12:16AM 51.7365 -33.6701 82° East  Level FlightAware Approximate
12:17AM 51.7573 -33.4313 82° East  Level FlightAware Approximate
12:18AM 51.7775 -33.1924 82° East  Level FlightAware Approximate
12:19AM 51.7972 -32.9532 82° East  Level FlightAware Approximate
12:20AM 51.8165 -32.7138 82° East  Level FlightAware Approximate
12:21AM 51.8353 -32.4742 83° East  Level FlightAware Approximate
12:22AM 51.8536 -32.2345 83° East  Level FlightAware Approximate
12:23AM 51.8714 -31.9945 83° East  Level FlightAware Approximate
12:24AM 51.8887 -31.7543 83° East  Level FlightAware Approximate
12:25AM 51.9055 -31.5140 83° East  Level FlightAware Approximate
12:26AM 51.9218 -31.2735 84° East  Level FlightAware Approximate
12:27AM 51.9377 -31.0328 84° East  Level FlightAware Approximate
12:28AM 51.9530 -30.7919 84° East  Level FlightAware Approximate
12:29AM 51.9679 -30.5509 84° East  Level FlightAware Approximate
12:30AM 51.9823 -30.3097 84° East  Level FlightAware Approximate
12:31AM 51.9962 -30.0684 85° East  Level FlightAware Approximate
12:32AM 52.0236 -29.8305 77° East  Level FlightAware Approximate
12:33AM 52.0560 -29.5936 77° East  Level FlightAware Approximate
12:34AM 52.0873 -29.3619 78° East  Level FlightAware Approximate
12:35AM 52.1181 -29.1299 78° East  Level FlightAware Approximate
12:36AM 52.1484 -28.8976 78° East  Level FlightAware Approximate
12:37AM 52.1783 -28.6649 78° East  Level FlightAware Approximate
12:38AM 52.2078 -28.4320 78° East  Level FlightAware Approximate
12:39AM 52.2367 -28.1987 78° East  Level FlightAware Approximate
12:40AM 52.2653 -27.9651 79° East  Level FlightAware Approximate
12:41AM 52.2933 -27.7313 79° East  Level FlightAware Approximate
12:42AM 52.3212 -27.4972 79° East  Level FlightAware Approximate
12:43AM 52.3499 -27.2633 79° East  Level FlightAware Approximate
12:44AM 52.3782 -27.0290 79° East  Level FlightAware Approximate
12:45AM 52.4060 -26.7945 79° East  Level FlightAware Approximate
12:46AM 52.4333 -26.5596 79° East  Level FlightAware Approximate
12:47AM 52.4602 -26.3245 79° East  Level FlightAware Approximate
12:48AM 52.4866 -26.0891 79° East  Level FlightAware Approximate
12:49AM 52.5126 -25.8534 80° East  Level FlightAware Approximate
12:50AM 52.5381 -25.6175 80° East  Level FlightAware Approximate
12:51AM 52.5631 -25.3812 80° East  Level FlightAware Approximate
12:52AM 52.5876 -25.1447 80° East  Level FlightAware Approximate
12:53AM 52.6117 -24.9080 80° East  Level FlightAware Approximate
12:54AM 52.6353 -24.6709 81° East  Level FlightAware Approximate
12:55AM 52.6584 -24.4337 81° East  Level FlightAware Approximate
12:56AM 52.6810 -24.1961 81° East  Level FlightAware Approximate
12:57AM 52.7032 -23.9584 81° East  Level FlightAware Approximate
12:58AM 52.7249 -23.7204 81° East  Level FlightAware Approximate
12:59AM 52.7461 -23.4821 82° East  Level FlightAware Approximate
01:00AM 52.7669 -23.2437 82° East  Level FlightAware Approximate
01:01AM 52.7871 -23.0049 82° East  Level FlightAware Approximate
01:02AM 52.8069 -22.7660 82° East  Level FlightAware Approximate
01:03AM 52.8262 -22.5269 82° East  Level FlightAware Approximate
01:04AM 52.8450 -22.2876 82° East  Level FlightAware Approximate
01:05AM 52.8634 -22.0480 83° East  Level FlightAware Approximate
01:06AM 52.8812 -21.8083 83° East  Level FlightAware Approximate
01:07AM 52.8986 -21.5683 83° East  Level FlightAware Approximate
01:08AM 52.9155 -21.3282 83° East  Level FlightAware Approximate
01:09AM 52.9319 -21.0879 83° East  Level FlightAware Approximate
01:10AM 52.9478 -20.8474 84° East  Level FlightAware Approximate
01:11AM 52.9633 -20.6067 84° East  Level FlightAware Approximate
01:12AM 52.9782 -20.3659 84° East  Level FlightAware Approximate
01:13AM 52.9927 -20.1249 84° East  Level FlightAware Approximate
01:14AM 52.9997 -19.8832 90° East  Level FlightAware Approximate
01:15AM 52.9986 -19.6409 90° East  Level FlightAware Approximate
01:16AM 52.9971 -19.3987 91° East  Level FlightAware Approximate
01:17AM 52.9951 -19.1564 91° East  Level FlightAware Approximate
01:18AM 52.9925 -18.9142 91° East  Level FlightAware Approximate
01:19AM 52.9895 -18.6721 91° East  Level FlightAware Approximate
01:20AM 52.9860 -18.4299 91° East  Level FlightAware Approximate
01:21AM 52.9820 -18.1878 91° East  Level FlightAware Approximate
01:22AM 52.9775 -17.9458 92° East  Level FlightAware Approximate
01:23AM 52.9725 -17.7038 92° East  Level FlightAware Approximate
01:24AM 52.9671 -17.4618 92° East  Level FlightAware Approximate
01:25AM 52.9611 -17.2199 92° East  Level FlightAware Approximate
01:26AM 52.9547 -16.9781 92° East  Level FlightAware Approximate
01:27AM 52.9477 -16.7364 93° East  Level FlightAware Approximate
01:28AM 52.9403 -16.4948 93° East  Level FlightAware Approximate
01:29AM 52.9324 -16.2532 93° East  Level FlightAware Approximate
01:30AM 52.9240 -16.0117 93° East  Level FlightAware Approximate
01:31AM 52.9151 -15.7704 93° East  Level FlightAware Approximate
01:32AM 52.9057 -15.5291 94° East  Level FlightAware Approximate
01:33AM 52.8958 -15.2879 94° East  Level FlightAware Approximate
01:34AM 52.8854 -15.0469 94° East  Level FlightAware Approximate
01:35AM 52.8753 -14.8058 94° East  Level FlightAware Approximate
01:36AM 52.8648 -14.5644 94° East  Level FlightAware Approximate
01:37AM 52.8539 -14.3231 94° East  Level FlightAware Approximate
01:38AM 52.8424 -14.0819 94° East  Level FlightAware Approximate
01:39AM 52.8305 -13.8408 95° East  Level FlightAware Approximate
01:39AM 52.8660 -12.9610 95° East 483 556 35,000  Level FlightAware
01:40AM 52.8181 -13.5999 95° East  Level FlightAware Approximate
01:40AM 52.8510 -12.7580 97° East 481 554 34,700  Level FlightAware
01:40AM 52.8370 -12.5840 98° East 492 566 33,000 -1,260 Descending FlightAware
01:41AM 52.8240 -12.4250 98° East 486 559 33,000  Level FlightAware
01:42AM 52.8120 -12.2740 97° East 488 562 33,000  Level FlightAware
01:42AM 52.7990 -12.1110 97° East 487 560 33,000  Level FlightAware
01:43AM 52.7870 -11.9620 98° East 483 556 33,000  Level FlightAware
01:44AM 52.7740 -11.8170 98° East 483 556 33,000  Level FlightAware
01:44AM 52.7620 -11.6710 98° East 482 555 33,000  Level FlightAware
01:45AM 52.7480 -11.5070 98° East 485 558 33,000  Level FlightAware
01:46AM 52.7360 -11.3780 99° East 486 559 33,000  Level FlightAware
01:47AM 52.7210 -11.2030 98° East 486 559 33,000  Level FlightAware
01:47AM 52.7070 -11.0470 98° East 488 562 33,000  Level FlightAware
01:48AM 52.6910 -10.8830 99° East 489 563 33,000  Level FlightAware
01:49AM 52.6780 -10.7360 98° East 488 562 33,000  Level FlightAware
01:49AM 52.6620 -10.5720 99° East 488 562 33,000  Level FlightAware
01:50AM 52.6480 -10.4230 99° East 486 559 33,000  Level FlightAware
01:51AM 52.6340 -10.2850 99° East 485 558 33,000  Level FlightAware
01:51AM 52.6190 -10.1300 99° East 482 555 33,000  Level FlightAware
01:52AM 52.6050 -9.9860 99° East 487 560 33,000  Level FlightAware
01:53AM 52.5870 -9.8150 100° East 485 558 33,000  Level FlightAware
01:54AM 52.5720 -9.6700 100° East 481 554 33,000  Level FlightAware
01:54AM 52.5550 -9.5060 100° East 480 552 33,000  Level FlightAware
01:55AM 52.5380 -9.3460 100° East 482 555 33,000  Level FlightAware
01:56AM 52.5230 -9.2020 100° East 482 555 33,000  Level FlightAware
01:56AM 52.5070 -9.0580 100° East 481 554 33,000 -120 Level FlightAware
01:57AM 52.4998 -8.9959 100° East 480 552 32,900  Descending FlightAware UK
01:57AM 52.4900 -8.9010 100° East 481 554 33,000 60 Climbing FlightAware
01:58AM 52.4766 -8.7808 100° East 482 555 33,000  Level FlightAware UK
01:58AM 52.4750 -8.7700 100° East 481 554 33,000  Level FlightAware
01:58AM 52.4642 -8.6729 100° East 480 552 33,000  Level FlightAware UK
01:58AM 52.4570 -8.6070 100° East 479 551 33,000  Level FlightAware
01:59AM 52.4398 -8.4584 100° East 480 552 33,000  Level FlightAware UK
01:59AM 52.4390 -8.4470 100° East 475 547 33,000  Level FlightAware
02:00AM 52.4274 -8.3519 100° East 480 552 33,000  Level FlightAware UK
02:00AM 52.4220 -8.3040 100° East 474 545 33,000 -240 Level FlightAware
02:00AM 52.4152 -8.2454 100° East 478 550 32,900  Descending FlightAware UK
02:01AM 52.4090 -8.1940 100° East 473 544 33,000  Climbing FlightAware
02:01AM 52.3912 -8.0343 100° East 478 550 32,900  Descending FlightAware UK
02:01AM 52.3900 -8.0220 100° East 473 544 33,000  Climbing FlightAware
02:02AM 52.3794 -7.9282 100° East 476 548 32,900  Descending FlightAware UK
02:02AM 52.3710 -7.8600 100° East 476 548 33,000  Climbing FlightAware
02:03AM 52.3556 -7.7159 100° East 478 550 32,900  Descending FlightAware UK
02:03AM 52.3560 -7.7220 100° East 475 547 33,000  Climbing FlightAware
02:03AM 52.3440 -7.6099 100° East 480 552 32,900  Descending FlightAware UK
02:03AM 52.3380 -7.5620 100° East 474 545 33,000 60 Climbing FlightAware
02:04AM 52.3230 -7.4220 100° East 476 548 33,000  Level FlightAware
02:05AM 52.3094 -7.2928 100° East 478 550 33,000  Level FlightAware UK
02:05AM 52.3060 -7.2600 100° East 477 549 33,000 -240 Level FlightAware
02:05AM 52.2986 -7.1863 100° East 480 552 32,900  Descending FlightAware UK
02:05AM 52.2920 -7.1200 100° East 476 548 33,000 60 Climbing FlightAware
02:06AM 52.2777 -6.9725 100° East 476 548 33,000  Level FlightAware UK
02:06AM 52.2780 -6.9760 100° East 478 550 33,000  Level FlightAware
02:07AM 52.2674 -6.8655 100° East 480 552 33,000  Level FlightAware UK
02:07AM 52.2640 -6.8330 100° East 479 551 33,000 -240 Level FlightAware
02:07AM 52.2570 -6.7583 100° East 480 552 32,900  Descending FlightAware UK
02:08AM 52.2490 -6.6730 100° East 478 550 33,000  Climbing FlightAware
02:08AM 52.2371 -6.5442 100° East 480 552 32,900  Descending FlightAware UK
02:08AM 52.2360 -6.5440 100° East 475 547 33,000 180 Climbing FlightAware
02:09AM 52.2206 -6.4409 100° East 476 548 33,000  Level FlightAware UK
02:09AM 52.2070 -6.3640 100° East 475 547 33,000  Level FlightAware
02:10AM 52.1869 -6.2337 100° East 478 550 33,000  Level FlightAware UK
02:10AM 52.1860 -6.2280 100° East 476 548 33,000 -240 Level FlightAware
02:10AM 52.1705 -6.1298 100° East 478 550 32,900  Descending FlightAware UK
02:10AM 52.1620 -6.0750 100° East 474 545 33,000 60 Climbing FlightAware
02:11AM 52.1377 -5.9216 100° East 474 545 33,000  Level FlightAware UK
02:11AM 52.1350 -5.9090 100° East 478 550 33,000  Level FlightAware
02:12AM 52.1178 -5.8188 100° East 476 548 33,000  Level FlightAware UK
02:12AM 52.1090 -5.7760 100° East 478 550 33,000  Level FlightAware
02:13AM 52.0781 -5.6134 100° East 476 548 33,000  Level FlightAware UK
02:13AM 52.0770 -5.6060 100° East 480 552 33,000  Level FlightAware
02:13AM 52.0490 -5.4600 107° East 481 554 33,000  Level FlightAware
02:14AM 52.0210 -5.3160 107° East 479 551 33,000  Level FlightAware
02:15AM 51.9997 -5.2007 107° East 476 548 33,000  Level FlightAware UK
02:15AM 51.9930 -5.1680 107° East 476 548 33,000  Level FlightAware
02:15AM 51.9800 -5.0985 107° East 478 550 33,000  Level FlightAware UK
02:16AM 51.9650 -5.0190 107° East 473 544 33,000  Level FlightAware
02:16AM 51.9406 -4.8956 107° East 476 548 33,000  Level FlightAware UK
02:16AM 51.9370 -4.8770 107° East 471 542 33,000  Level FlightAware
02:17AM 51.9171 -4.7750 107° East 476 548 33,000  Level FlightAware UK
02:17AM 51.9080 -4.7300 107° East 470 541 33,000  Level FlightAware
02:17AM 51.8933 -4.6550 107° East 474 545 33,000  Level FlightAware UK
02:18AM 51.8830 -4.6020 107° East 468 539 33,000 -540 Level FlightAware
02:18AM 51.8692 -4.5353 107° East 476 548 32,700 -1,200 Descending FlightAware UK
02:18AM 51.8550 -4.4650 107° East 471 542 32,200 -1,440 Descending FlightAware
02:19AM 51.8298 -4.3343 107° East 480 552 31,300 -1,380 Descending FlightAware UK
02:19AM 51.8260 -4.3150 107° East 471 542 31,200 -600 Descending FlightAware
02:20AM 51.8014 -4.1937 107° East 484 557 30,900 -300 Descending FlightAware UK
02:20AM 51.7990 -4.1830 107° East 473 544 31,000 120 Climbing FlightAware
02:20AM 51.7720 -4.0460 108° East 471 542 31,000  Level FlightAware
02:21AM 51.7420 -3.8920 107° East 469 540 31,000 -120 Level FlightAware
02:22AM 51.7194 -3.7724 107° East 482 555 30,900  Descending FlightAware UK
02:22AM 51.7190 -3.7690 107° East 469 540 31,000 -540 Climbing FlightAware
02:22AM 51.6968 -3.6519 107° East 472 543 30,600 -660 Descending FlightAware UK
02:23AM 51.6890 -3.6100 107° East 453 521 30,500 -840 Descending FlightAware
02:23AM 51.6795 -3.5560 107° East 458 527 30,200 -1,080 Descending FlightAware UK
02:23AM 51.6650 -3.4820 107° East 442 509 29,800 -1,320 Descending FlightAware
02:24AM 51.6420 -3.3550 106° East 438 504 28,800 -1,440 Descending FlightAware
02:24AM 51.6237 -3.2556 106° East 444 511 28,100 -1,140 Descending FlightAware UK
02:25AM 51.6220 -3.2450 106° East 432 497 28,100 -1,140 Level FlightAware
02:25AM 51.6011 -3.1262 106° East 434 499 27,300 -1,380 Descending FlightAware UK
02:25AM 51.5965 -3.0997 106° East 428 493 27,100 -1,620 Descending FlightAware ADS-B
02:26AM 51.5848 -3.0342 106° East 432 497 26,500 -1,560 Descending FlightAware UK
02:26AM 51.5740 -2.9770 106° East 428 493 26,000 -1,500 Descending FlightAware
02:27AM 51.5510 -2.8606 108° East 428 493 25,100 -1,440 Descending FlightAware ADS-B
02:27AM 51.5251 -2.7249 108° East 416 479 24,100 -1,320 Descending FlightAware UK
02:27AM 51.5230 -2.7070 108° East 430 495 24,000 -1,140 Descending FlightAware
02:28AM 51.5063 -2.5758 102° East 424 488 23,200 -1,140 Descending FlightAware ADS-B
02:29AM 51.4938 -2.4825 102° East 421 484 22,700 -1,080 Descending FlightAware ADS-B
02:29AM 51.4778 -2.3645 102° East 413 475 22,000 -1,080 Descending FlightAware ADS-B
02:30AM 51.4632 -2.2599 103° East 409 471 21,400 -1,260 Descending FlightAware ADS-B
02:30AM 51.4499 -2.1684 103° East 402 463 20,600 -1,800 Descending FlightAware ADS-B
02:31AM 51.4366 -2.0790 103° East 398 458 19,600 -1,980 Descending FlightAware ADS-B
02:31AM 51.4286 -2.0262 103° East 390 449 19,000 -1,920 Descending FlightAware UK
02:32AM 51.4206 -1.9804 103° East 392 451 18,500 -1,860 Descending FlightAware ADS-B
02:32AM 51.4097 -1.9279 108° East 387 445 17,900 -1,800 Descending FlightAware ADS-B
02:32AM 51.4013 -1.8889 109° East 385 443 17,500 -1,860 Descending FlightAware ADS-B
02:32AM 51.3890 -1.8295 109° East 384 442 16,800 -1,800 Descending FlightAware UK
02:33AM 51.3836 -1.8038 109° East 380 437 16,600 -1,620 Descending FlightAware ADS-B
02:33AM 51.3657 -1.7222 109° East 375 432 15,700 -1,800 Descending FlightAware ADS-B
02:34AM 51.3533 -1.6621 108° East 372 428 15,000 -1,800 Descending FlightAware ADS-B
02:34AM 51.3484 -1.6323 105° East 372 428 14,700 -1,860 Descending FlightAware ADS-B
02:34AM 51.3425 -1.5920 105° East 362 417 14,200 -1,500 Descending FlightAware UK
02:34AM 51.3359 -1.5476 105° East 369 425 13,900 -1,380 Descending FlightAware ADS-B
02:35AM 51.3285 -1.4965 105° East 356 410 13,400 -1,620 Descending FlightAware UK
02:35AM 51.3244 -1.4680 105° East 364 419 13,100 -1,500 Descending FlightAware ADS-B
02:35AM 51.3133 -1.3893 103° East 356 410 12,400 -1,140 Descending FlightAware ADS-B
02:36AM 51.3047 -1.3272 103° East 332 382 12,100 -600 Descending FlightAware UK
02:36AM 51.3024 -1.3112 103° East 336 387 12,100 -420 Level FlightAware ADS-B
02:36AM 51.2949 -1.2561 103° East 312 359 11,900 -240 Descending FlightAware UK
02:36AM 51.2928 -1.2405 103° East 313 360 12,000 180 Climbing FlightAware ADS-B
02:37AM 51.2878 -1.1939 100° East 295 339 12,000  Level FlightAware ADS-B
02:37AM 51.2864 -1.1559 93° East 283 326 12,000  Level FlightAware ADS-B
02:37AM 51.2876 -1.0997 88° East 279 321 12,000 -180 Level FlightAware ADS-B
02:38AM 51.2885 -1.0654 88° East 264 304 11,900  Descending FlightAware UK
02:38AM 51.2892 -1.0377 88° East 279 321 12,000 120 Climbing FlightAware ADS-B
02:38AM 51.2910 -0.9746 87° East 278 320 12,000 -120 Level FlightAware ADS-B
02:39AM 51.2923 -0.9297 87° East 266 306 11,900  Descending FlightAware UK
02:39AM 51.2928 -0.9124 87° East 280 322 12,000 -240 Climbing FlightAware ADS-B
02:39AM 51.2942 -0.8676 87° East 266 306 11,800 -600 Descending FlightAware UK
02:39AM 51.2946 -0.8495 87° East 277 319 11,700 -1,020 Descending FlightAware ADS-B
02:40AM 51.2958 -0.8061 87° East 264 304 11,300 -1,020 Descending FlightAware UK
02:40AM 51.2963 -0.7886 87° East 273 314 11,200 -900 Descending FlightAware ADS-B
02:40AM 51.2979 -0.7254 88° East 269 310 10,700 -1,020 Descending FlightAware ADS-B
02:41AM 51.2992 -0.6779 87° East 264 304 10,300 -960 Descending FlightAware ADS-B
02:41AM 51.3002 -0.6370 88° East 260 299 10,000 -1,020 Descending FlightAware ADS-B
02:41AM 51.3010 -0.6071 88° East 258 297 9,700 -960 Descending FlightAware ADS-B
02:42AM 51.3018 -0.5740 88° East 255 293 9,500 -960 Descending FlightAware ADS-B
02:42AM 51.3026 -0.5447 87° East 253 291 9,200 -1,020 Descending FlightAware ADS-B
02:42AM 51.3033 -0.5161 88° East 250 288 9,000 -420 Descending FlightAware ADS-B
02:43AM 51.3041 -0.4870 87° East 250 288 9,000  Level FlightAware ADS-B
02:43AM 51.3046 -0.4568 88° East 250 288 9,000  Level FlightAware ADS-B
02:43AM 51.3041 -0.4354 92° East 248 285 9,000  Level FlightAware ADS-B
02:43AM 51.3028 -0.4138 96° East 247 284 9,000  Level FlightAware ADS-B
02:43AM 51.3016 -0.3928 95° East 247 284 9,000  Level FlightAware ADS-B
02:44AM 51.3001 -0.3615 94° East 247 284 9,000  Level FlightAware ADS-B
02:44AM 51.2986 -0.3336 95° East 249 287 9,000  Level FlightAware ADS-B
02:44AM 51.2965 -0.3156 101° East 248 285 9,000  Level FlightAware ADS-B
02:44AM 51.2952 -0.3104 112° Southeast 246 283 9,000  Level FlightAware ADS-B
02:44AM 51.2925 -0.3025 119° Southeast 243 280 9,000  Level FlightAware ADS-B
02:44AM 51.2895 -0.2962 127° Southeast 241 277 9,000  Level FlightAware ADS-B
02:44AM 51.2840 -0.2876 136° Southeast 239 275 9,000  Level FlightAware ADS-B
02:45AM 51.2812 -0.2843 143° Southeast 239 275 9,000  Level FlightAware ADS-B
02:45AM 51.2765 -0.2800 150° Southeast 239 275 9,000 -960 Level FlightAware ADS-B
02:45AM 51.2612 -0.2738 166° South 241 277 8,700 -1,200 Descending FlightAware ADS-B
02:45AM 51.2534 -0.2747 184° South 240 276 8,600 -780 Descending FlightAware ADS-B
02:45AM 51.2440 -0.2794 198° South 239 275 8,500 -840 Descending FlightAware ADS-B
02:45AM 51.2315 -0.2946 217° Southwest 241 277 8,300 -1,020 Descending FlightAware ADS-B
02:45AM 51.2289 -0.3000 233° Southwest 244 281 8,200 -1,380 Descending FlightAware ADS-B
02:45AM 51.2259 -0.3082 240° Southwest 245 282 8,100 -720 Descending FlightAware ADS-B
02:46AM 51.2244 -0.3144 249° West 246 283 8,100 -780 Level FlightAware ADS-B
02:46AM 51.2231 -0.3220 255° West 248 285 8,000 -780 Descending FlightAware ADS-B
02:46AM 51.2225 -0.3286 262° West 251 289 8,000  Level FlightAware ADS-B
02:46AM 51.2224 -0.3366 269° West 252 290 8,000  Level FlightAware ADS-B
02:46AM 51.2228 -0.3440 275° West 254 292 8,000  Level FlightAware ADS-B
02:46AM 51.2237 -0.3506 282° West 254 292 8,000  Level FlightAware ADS-B
02:46AM 51.2256 -0.3595 289° West 256 295 8,000  Level FlightAware ADS-B
02:46AM 51.2294 -0.3700 300° West 259 298 8,000  Level FlightAware ADS-B
02:46AM 51.2318 -0.3748 308° West 260 299 8,000  Level FlightAware ADS-B
02:46AM 51.2356 -0.3811 314° West 261 300 8,000  Level FlightAware ADS-B
02:46AM 51.2410 -0.3874 324° Northwest 264 304 8,000  Level FlightAware ADS-B
02:47AM 51.2572 -0.4041 327° Northwest 268 308 8,000  Level FlightAware ADS-B
02:47AM 51.2731 -0.4201 328° Northwest 268 308 8,000  Level FlightAware ADS-B
02:47AM 51.2894 -0.4354 330° Northwest 269 310 8,000  Level FlightAware ADS-B
02:47AM 51.3056 -0.4497 331° Northwest 267 307 8,000  Level FlightAware ADS-B
02:47AM 51.3146 -0.4551 339° North 263 303 8,000  Level FlightAware ADS-B
02:47AM 51.3193 -0.4563 351° North 263 303 8,000  Level FlightAware ADS-B
02:48AM 51.3230 -0.4565 358° North 263 303 8,000  Level FlightAware ADS-B
02:48AM 51.3305 -0.4550 North 263 303 8,000  Level FlightAware ADS-B
02:48AM 51.3365 -0.4518 18° North 264 304 8,000  Level FlightAware ADS-B
02:48AM 51.3414 -0.4474 29° Northeast 263 303 8,000  Level FlightAware ADS-B
02:48AM 51.3463 -0.4412 38° Northeast 261 300 8,000  Level FlightAware ADS-B
02:48AM 51.3487 -0.4369 48° Northeast 260 299 8,000  Level FlightAware ADS-B
02:48AM 51.3515 -0.4305 55° Northeast 259 298 8,000  Level FlightAware ADS-B
02:48AM 51.3536 -0.4231 65° Northeast 256 295 8,000  Level FlightAware ADS-B
02:48AM 51.3549 -0.4173 70° East 255 293 8,000  Level FlightAware ADS-B
02:48AM 51.3556 -0.4113 79° East 252 290 8,000  Level FlightAware ADS-B
02:48AM 51.3560 -0.4059 83° East 250 288 8,000  Level FlightAware ADS-B
02:48AM 51.3556 -0.3959 94° East 246 283 8,000  Level FlightAware ADS-B
02:48AM 51.3537 -0.3845 105° East 241 277 8,000  Level FlightAware ADS-B
02:48AM 51.3518 -0.3783 116° Southeast 239 275 8,000  Level FlightAware ADS-B
02:49AM 51.3500 -0.3736 122° Southeast 239 275 8,000  Level FlightAware ADS-B
02:49AM 51.3464 -0.3672 132° Southeast 238 274 8,000  Level FlightAware ADS-B
02:49AM 51.3438 -0.3635 139° Southeast 238 274 8,000  Level FlightAware ADS-B
02:49AM 51.3372 -0.3573 149° Southeast 236 272 8,000  Level FlightAware ADS-B
02:49AM 51.3339 -0.3553 160° South 236 272 8,000  Level FlightAware ADS-B
02:49AM 51.3221 -0.3532 173° South 237 273 8,000  Level FlightAware ADS-B
02:49AM 51.3134 -0.3562 192° South 241 277 8,000  Level FlightAware ADS-B
02:49AM 51.3038 -0.3649 209° Southwest 245 282 8,000  Level FlightAware ADS-B
02:50AM 51.2931 -0.3889 235° Southwest 258 297 8,000 -360 Level FlightAware ADS-B
02:50AM 51.2919 -0.3944 251° West 262 302 7,900 -1,800 Descending FlightAware ADS-B
02:50AM 51.2905 -0.4098 262° West 273 314 7,700 -1,440 Descending FlightAware ADS-B
02:50AM 51.2907 -0.4205 272° West 276 318 7,600 -1,200 Descending FlightAware ADS-B
02:50AM 51.2923 -0.4394 278° West 278 320 7,400 -1,200 Descending FlightAware ADS-B
02:50AM 51.2960 -0.4706 281° West 277 319 7,100 -780 Descending FlightAware ADS-B
02:51AM 51.2999 -0.5041 281° West 271 312 7,000 -240 Descending FlightAware ADS-B
02:51AM 51.3033 -0.5341 280° West 272 313 7,000  Level FlightAware ADS-B
02:51AM 51.3066 -0.5639 280° West 272 313 7,000  Level FlightAware ADS-B
02:51AM 51.3102 -0.5941 281° West 270 311 7,000  Level FlightAware ADS-B
02:52AM 51.3137 -0.6234 281° West 270 311 7,000 -420 Level FlightAware ADS-B
02:52AM 51.3172 -0.6529 281° West 268 308 6,800 -720 Descending FlightAware ADS-B
02:52AM 51.3196 -0.6725 281° West 270 311 6,700 -780 Descending FlightAware ADS-B
02:52AM 51.3215 -0.6845 284° West 272 313 6,600 -1,020 Descending FlightAware ADS-B
02:52AM 51.3237 -0.6959 287° West 273 314 6,500 -900 Descending FlightAware ADS-B
02:52AM 51.3300 -0.7248 289° West 274 315 6,300 -780 Descending FlightAware ADS-B
02:53AM 51.3365 -0.7533 290° West 272 313 6,100 -900 Descending FlightAware ADS-B
02:53AM 51.3391 -0.7626 294° West 272 313 6,000 -600 Descending FlightAware ADS-B
02:53AM 51.3427 -0.7733 298° West 273 314 6,000 -540 Level FlightAware ADS-B
02:53AM 51.3465 -0.7835 301° West 273 314 5,900 -1,080 Descending FlightAware ADS-B
02:53AM 51.3544 -0.8033 303° West 271 312 5,700 -900 Descending FlightAware ADS-B
02:53AM 51.3606 -0.8183 304° West 270 311 5,600 -780 Descending FlightAware ADS-B
02:54AM 51.3710 -0.8429 304° West 264 304 5,400 -780 Descending FlightAware ADS-B
02:54AM 51.3811 -0.8668 304° West 249 287 5,200 -720 Descending FlightAware ADS-B
02:54AM 51.3876 -0.8820 305° West 235 270 5,100 -960 Descending FlightAware ADS-B
02:54AM 51.3897 -0.8860 310° West 228 262 5,000 -900 Descending FlightAware ADS-B
02:54AM 51.3925 -0.8906 314° West 225 259 5,000 -900 Level FlightAware ADS-B
02:54AM 51.3951 -0.8938 323° Northwest 222 255 4,900 -900 Descending FlightAware ADS-B
02:54AM 51.3987 -0.8971 330° Northwest 219 252 4,900 -600 Level FlightAware ADS-B
02:54AM 51.4037 -0.9001 339° North 216 249 4,800 -1,140 Descending FlightAware ADS-B
02:54AM 51.4088 -0.9016 349° North 214 246 4,700 -720 Descending FlightAware ADS-B
02:54AM 51.4132 -0.9026 353° North 212 244 4,700 -420 Level FlightAware ADS-B
02:55AM 51.4249 -0.9038 356° North 207 238 4,600 -360 Descending FlightAware ADS-B
02:55AM 51.4286 -0.9031 North 206 237 4,600 -600 Level FlightAware ADS-B
02:55AM 51.4332 -0.9010 16° North 203 234 4,500 -720 Descending FlightAware ADS-B
02:55AM 51.4367 -0.8980 28° Northeast 200 230 4,500  Level FlightAware ADS-B
02:55AM 51.4394 -0.8949 36° Northeast 198 228 4,500 -900 Level FlightAware ADS-B
02:55AM 51.4419 -0.8909 45° Northeast 194 223 4,400 -780 Descending FlightAware ADS-B
02:55AM 51.4440 -0.8865 52° Northeast 192 221 4,400 -420 Level FlightAware ADS-B
02:55AM 51.4497 -0.8729 56° Northeast 190 219 4,300 -480 Descending FlightAware ADS-B
02:56AM 51.4569 -0.8539 59° Northeast 188 216 4,200 -420 Descending FlightAware ADS-B
02:56AM 51.4641 -0.8350 58° Northeast 187 215 4,100 -600 Descending FlightAware ADS-B
02:56AM 51.4710 -0.8170 58° Northeast 186 214 3,900 -660 Descending FlightAware ADS-B
02:56AM 51.4727 -0.8121 61° Northeast 185 213 3,900  Level FlightAware ADS-B
02:56AM 51.4739 -0.8069 70° East 184 212 3,900 -780 Level FlightAware ADS-B
02:56AM 51.4747 -0.8028 73° East 183 211 3,800 -900 Descending FlightAware ADS-B
02:56AM 51.4753 -0.7978 79° East 181 208 3,800  Level FlightAware ADS-B
02:56AM 51.4758 -0.7922 82° East 177 204 3,800 -720 Level FlightAware ADS-B
02:56AM 51.4759 -0.7869 88° East 174 200 3,700 -900 Descending FlightAware ADS-B
02:57AM 51.4760 -0.7823 88° East 172 198 3,700 -360 Level FlightAware ADS-B
02:57AM 51.4759 -0.7663 91° East 162 186 3,600 -840 Descending FlightAware ADS-B
02:57AM 51.4760 -0.7552 89° East 159 183 3,400 -1,020 Descending FlightAware ADS-B
02:57AM 51.4762 -0.7373 89° East 158 182 3,200 -780 Descending FlightAware ADS-B
02:57AM 51.4763 -0.7196 89° East 154 177 3,000 -780 Descending FlightAware ADS-B
02:58AM 51.4765 -0.7021 89° East 150 173 2,800 -900 Descending FlightAware ADS-B
02:58AM 51.4766 -0.6887 89° East 145 167 2,600 -960 Descending FlightAware ADS-B
02:58AM 51.4767 -0.6739 89° East 143 165 2,400 -840 Descending FlightAware ADS-B
02:58AM 51.4767 -0.6652 90° East 142 163 2,300 -720 Descending FlightAware ADS-B
02:59AM 51.4768 -0.6486 89° East 141 162 2,100 -780 Descending FlightAware ADS-B
02:59AM 51.4769 -0.6321 89° East 140 161 1,900 -780 Descending FlightAware ADS-B
02:59AM 51.4769 -0.6160 90° East 139 160 1,700 -780 Descending FlightAware ADS-B
02:59AM 51.4770 -0.5997 89° East 137 158 1,500 -660 Descending FlightAware ADS-B
03:00AM 51.4770 -0.5875 90° East 133 153 1,400 -840 Descending FlightAware ADS-B
03:00AM 51.4771 -0.5471 90° East 150 173 800 -840 Descending FlightAware UK
03:00AM 51.4774 -0.5281 89° East 162 186 600 -480 Descending FlightAware UK
03:01AM 51.4770 -0.5220 89° East 143 165 600 -780 Level FlightAware
03:01AM 51.4770 -0.4970 90° East 143 165 200 -480 Descending FlightAware
03:01AM 51.4780 -0.4730 86° East 143 165 200  Level FlightAware
03:04AM 51.4775 -0.4614 90° East  Level Estimated